createdAt,value
2018-06-15T00:00:07.918Z,90.40
2018-06-15T00:02:42.186Z,90.10
2018-06-15T00:05:16.470Z,90.20
2018-06-15T00:07:50.797Z,90.20
2018-06-15T00:10:25.054Z,90.20
2018-06-15T00:12:59.442Z,90.20
2018-06-15T00:15:33.723Z,90.20
2018-06-15T00:18:07.922Z,90.20
2018-06-15T00:20:42.118Z,90.20
2018-06-15T00:23:16.607Z,90.00
2018-06-15T00:25:50.813Z,90.20
2018-06-15T00:30:59.250Z,90.20
2018-06-15T00:33:33.479Z,89.90
2018-06-15T00:36:07.668Z,90.20
2018-06-15T00:41:16.153Z,91.00
2018-06-15T00:43:50.608Z,90.50
2018-06-15T00:46:24.858Z,90.60
2018-06-15T00:48:59.155Z,90.70
2018-06-15T00:51:33.435Z,91.00
2018-06-15T00:54:07.735Z,91.00
2018-06-15T00:56:53.391Z,91.10
2018-06-15T00:59:27.675Z,91.60
2018-06-15T01:02:02.011Z,91.20
2018-06-15T01:04:36.294Z,91.30
2018-06-15T01:07:10.637Z,91.40
2018-06-15T01:09:45.036Z,91.40
2018-06-15T01:12:19.329Z,91.50
2018-06-15T01:14:53.642Z,91.50
2018-06-15T01:17:28.062Z,91.20
2018-06-15T01:20:02.246Z,91.40
2018-06-15T01:22:36.497Z,91.60
2018-06-15T01:25:10.802Z,91.30
2018-06-15T01:27:45.051Z,91.20
2018-06-15T01:30:19.337Z,91.40
2018-06-15T01:32:53.715Z,91.40
2018-06-15T01:35:27.993Z,91.60
2018-06-15T01:38:02.270Z,91.60
2018-06-15T01:40:36.680Z,91.60
2018-06-15T01:43:11.007Z,91.50
2018-06-15T01:45:45.270Z,91.50
2018-06-15T01:48:19.550Z,91.30
2018-06-15T01:50:53.858Z,91.30
2018-06-15T01:56:02.234Z,91.50
2018-06-15T01:58:36.647Z,91.40
2018-06-15T02:01:11.108Z,91.20
2018-06-15T02:03:45.340Z,91.20
2018-06-15T02:06:19.614Z,91.20
2018-06-15T02:08:53.831Z,91.30
2018-06-15T02:11:29.067Z,91.10
2018-06-15T02:16:37.373Z,91.50
2018-06-15T02:19:11.684Z,91.20
2018-06-15T02:21:45.914Z,91.40
2018-06-15T02:24:20.241Z,91.30
2018-06-15T02:26:54.624Z,91.10
2018-06-15T02:29:28.909Z,91.30
2018-06-15T02:32:03.207Z,91.20
2018-06-15T02:34:37.484Z,91.40
2018-06-15T02:37:11.717Z,91.40
2018-06-15T02:39:45.835Z,91.50
2018-06-15T02:42:20.182Z,91.30
2018-06-15T02:44:54.370Z,91.20
2018-06-15T02:47:28.575Z,91.20
2018-06-15T02:50:02.974Z,91.30
2018-06-15T02:52:37.211Z,91.30
2018-06-15T02:55:11.545Z,91.20
2018-06-15T02:57:45.866Z,91.40
2018-06-15T03:00:20.162Z,91.50
2018-06-15T03:02:54.499Z,91.30
2018-06-15T03:05:28.698Z,91.30
2018-06-15T03:08:03.005Z,91.00
2018-06-15T03:15:45.595Z,91.30
2018-06-15T03:18:19.847Z,90.90
2018-06-15T03:20:54.150Z,91.10
2018-06-15T03:23:28.323Z,91.30
2018-06-15T03:26:02.507Z,91.30
2018-06-15T03:28:36.953Z,91.30
2018-06-15T03:31:11.234Z,91.30
2018-06-15T03:33:45.595Z,91.30
2018-06-15T03:36:19.793Z,91.40
2018-06-15T03:38:53.960Z,91.60
2018-06-15T03:44:02.310Z,91.40
2018-06-15T03:49:12.088Z,91.50
2018-06-15T03:51:46.382Z,91.60
2018-06-15T03:54:20.679Z,91.50
2018-06-15T03:56:55.024Z,91.50
2018-06-15T03:59:29.313Z,91.50
2018-06-15T04:02:03.652Z,91.50
2018-06-15T04:04:37.925Z,91.50
2018-06-15T04:07:12.262Z,91.50
2018-06-15T04:09:46.623Z,91.50
2018-06-15T04:12:21.015Z,91.50
2018-06-15T04:14:55.375Z,91.60
2018-06-15T04:17:29.680Z,91.70
2018-06-15T04:20:03.859Z,91.70
2018-06-15T04:22:38.110Z,91.70
2018-06-15T04:25:12.455Z,91.90
2018-06-15T04:27:46.787Z,91.80
2018-06-15T04:30:21.134Z,91.80
2018-06-15T04:32:55.724Z,91.70
2018-06-15T04:35:29.919Z,91.60
2018-06-15T04:38:04.117Z,91.60
2018-06-15T04:40:38.378Z,91.60
2018-06-15T04:45:46.958Z,91.90
2018-06-15T04:48:21.340Z,91.80
2018-06-15T04:50:55.692Z,91.50
2018-06-15T04:53:30.066Z,91.60
2018-06-15T04:56:04.401Z,91.50
2018-06-15T04:58:38.797Z,91.50
2018-06-15T05:01:13.111Z,91.60
2018-06-15T05:03:47.375Z,91.50
2018-06-15T05:06:21.794Z,91.70
2018-06-15T05:08:56.160Z,91.60
2018-06-15T05:11:30.455Z,91.40
2018-06-15T05:14:04.646Z,91.60
2018-06-15T05:16:38.897Z,91.60
2018-06-15T05:19:13.134Z,91.60
2018-06-15T05:21:47.379Z,91.40
2018-06-15T05:24:21.618Z,91.60
2018-06-15T05:26:55.829Z,91.30
2018-06-15T05:29:30.205Z,90.90
2018-06-15T05:32:04.605Z,90.70
2018-06-15T05:34:38.810Z,91.00
2018-06-15T05:37:13.238Z,90.90
2018-06-15T05:39:47.438Z,90.00
2018-06-15T05:42:21.712Z,89.20
2018-06-15T05:44:56.051Z,88.60
2018-06-15T05:47:30.354Z,88.00
2018-06-15T05:50:04.645Z,88.90
2018-06-15T05:55:13.198Z,88.40
2018-06-15T05:57:47.490Z,88.40
2018-06-15T06:00:22.122Z,87.50
2018-06-15T06:02:56.381Z,87.80
2018-06-15T06:05:30.620Z,88.00
2018-06-15T06:08:04.938Z,87.30
2018-06-15T06:10:39.284Z,86.90
2018-06-15T06:13:13.580Z,87.30
2018-06-15T06:15:47.752Z,87.60
2018-06-15T06:18:22.087Z,86.80
2018-06-15T06:20:56.224Z,88.70
2018-06-15T06:23:30.544Z,86.20
2018-06-15T06:26:05.111Z,85.30
2018-06-15T06:28:39.486Z,85.50
2018-06-15T06:31:13.721Z,84.60
2018-06-15T06:33:48.099Z,85.60
2018-06-15T06:36:22.367Z,85.60
2018-06-15T06:38:56.540Z,82.90
2018-06-15T06:41:30.662Z,83.40
2018-06-15T06:44:04.986Z,82.50
2018-06-15T06:46:39.176Z,81.60
2018-06-15T06:49:13.483Z,80.10
2018-06-15T06:51:47.785Z,79.90
2018-06-15T06:54:22.062Z,80.40
2018-06-15T06:56:56.475Z,82.60
2018-06-15T06:59:30.761Z,80.60
2018-06-15T07:04:39.132Z,82.40
2018-06-15T07:07:13.504Z,83.60
2018-06-15T07:12:21.866Z,82.00
2018-06-15T07:14:57.541Z,81.10
2018-06-15T07:17:31.818Z,81.50
2018-06-15T07:20:06.029Z,81.30
2018-06-15T07:22:40.323Z,79.90
2018-06-15T07:25:15.015Z,79.70
2018-06-15T07:27:49.182Z,80.30
2018-06-15T07:30:23.519Z,77.50
2018-06-15T07:32:57.794Z,79.20
2018-06-15T07:35:32.234Z,79.10
2018-06-15T07:38:06.534Z,78.20
2018-06-15T07:40:40.939Z,77.30
2018-06-15T07:43:15.327Z,76.80
2018-06-15T07:45:49.672Z,79.40
2018-06-15T07:48:23.914Z,79.10
2018-06-15T07:50:58.281Z,78.20
2018-06-15T07:53:32.557Z,77.00
2018-06-15T07:56:06.878Z,77.20
2018-06-15T07:58:41.235Z,77.10
2018-06-15T08:01:15.627Z,77.70
2018-06-15T08:03:55.258Z,77.70
2018-06-15T08:06:29.482Z,75.40
2018-06-15T08:09:05.642Z,74.80
2018-06-15T08:11:39.857Z,75.80
2018-06-15T08:14:14.311Z,75.70
2018-06-15T08:16:48.666Z,77.00
2018-06-15T08:19:22.903Z,75.40
2018-06-15T08:21:57.066Z,73.00
2018-06-15T08:24:31.362Z,74.10
2018-06-15T08:27:05.890Z,71.90
2018-06-15T08:29:40.102Z,73.30
2018-06-15T08:32:14.450Z,73.30
2018-06-15T08:34:48.862Z,73.30
2018-06-15T08:37:23.166Z,72.20
2018-06-15T08:39:57.590Z,72.60
2018-06-15T08:42:31.962Z,70.60
2018-06-15T08:45:06.430Z,72.70
2018-06-15T08:47:40.778Z,71.70
2018-06-15T08:50:15.191Z,70.20
2018-06-15T08:52:49.665Z,71.80
2018-06-15T08:55:23.787Z,71.30
2018-06-15T08:57:58.120Z,71.80
2018-06-15T09:00:32.359Z,71.20
2018-06-15T09:03:06.578Z,69.80
2018-06-15T09:05:41.024Z,70.10
2018-06-15T09:08:15.295Z,69.40
2018-06-15T09:10:49.661Z,67.20
2018-06-15T09:13:23.902Z,68.40
2018-06-15T09:15:58.307Z,66.70
2018-06-15T09:21:06.946Z,68.60
2018-06-15T09:23:41.194Z,67.70
2018-06-15T09:26:15.487Z,66.30
2018-06-15T09:28:49.859Z,67.30
2018-06-15T09:31:24.091Z,68.00
2018-06-15T09:33:58.317Z,68.70
2018-06-15T09:36:32.576Z,68.90
2018-06-15T09:41:41.638Z,67.20
2018-06-15T09:44:15.802Z,67.30
2018-06-15T09:46:50.015Z,67.30
2018-06-15T09:49:24.187Z,66.60
2018-06-15T09:51:58.415Z,63.40
2018-06-15T09:54:32.638Z,62.30
2018-06-15T09:57:07.032Z,60.80
2018-06-15T09:59:41.214Z,59.30
2018-06-15T10:02:15.506Z,60.10
2018-06-15T10:04:49.902Z,58.00
2018-06-15T10:07:24.269Z,58.30
2018-06-15T10:09:58.582Z,60.50
2018-06-15T10:12:32.874Z,59.00
2018-06-15T10:15:07.195Z,58.00
2018-06-15T10:17:41.675Z,58.10
2018-06-15T10:20:15.958Z,58.20
2018-06-15T10:22:50.289Z,57.90
2018-06-15T10:25:24.476Z,57.50
2018-06-15T10:27:58.693Z,54.40
2018-06-15T10:30:33.028Z,55.60
2018-06-15T10:33:07.533Z,54.30
2018-06-15T10:35:41.774Z,52.70
2018-06-15T10:38:16.014Z,52.70
2018-06-15T10:40:50.175Z,52.70
2018-06-15T10:43:24.493Z,54.40
2018-06-15T10:45:58.758Z,53.90
2018-06-15T10:48:33.069Z,52.50
2018-06-15T10:51:07.421Z,54.70
2018-06-15T10:53:41.652Z,54.70
2018-06-15T10:56:15.963Z,54.40
2018-06-15T10:58:50.216Z,54.40
2018-06-15T11:01:24.492Z,53.50
2018-06-15T11:03:58.883Z,54.30
2018-06-15T11:06:33.174Z,54.20
2018-06-15T11:09:08.109Z,55.50
2018-06-15T11:11:42.331Z,54.00
2018-06-15T11:14:16.664Z,55.20
2018-06-15T11:16:50.915Z,54.00
2018-06-15T11:19:25.212Z,53.20
2018-06-15T11:21:59.618Z,54.50
2018-06-15T11:24:33.953Z,56.30
2018-06-15T11:27:08.234Z,54.80
2018-06-15T11:29:42.435Z,52.50
2018-06-15T11:32:16.893Z,53.80
2018-06-15T11:34:55.883Z,53.90
2018-06-15T11:37:30.207Z,52.40
2018-06-15T11:40:04.556Z,51.80
2018-06-15T11:42:38.870Z,50.90
2018-06-15T11:45:13.137Z,51.50
2018-06-15T11:47:47.303Z,47.90
2018-06-15T11:50:21.622Z,48.40
2018-06-15T11:52:55.955Z,49.60
2018-06-15T11:55:30.242Z,47.50
2018-06-15T11:58:04.614Z,50.00
2018-06-15T12:00:38.919Z,46.50
2018-06-15T12:03:13.151Z,47.50
2018-06-15T12:05:47.451Z,48.40
2018-06-15T12:08:21.810Z,48.30
2018-06-15T12:10:56.080Z,49.40
2018-06-15T12:13:30.576Z,50.10
2018-06-15T12:16:04.870Z,46.50
2018-06-15T12:18:39.266Z,47.90
2018-06-15T12:21:13.518Z,46.50
2018-06-15T12:23:47.779Z,46.20
2018-06-15T12:26:21.910Z,46.30
2018-06-15T12:28:56.161Z,44.30
2018-06-15T12:31:30.342Z,43.90
2018-06-15T12:36:38.575Z,43.80
2018-06-15T12:39:13.020Z,43.80
2018-06-15T12:41:47.394Z,41.20
2018-06-15T12:44:21.874Z,43.20
2018-06-15T12:46:56.134Z,42.70
2018-06-15T12:49:30.541Z,42.40
2018-06-15T12:52:05.062Z,42.60
2018-06-15T12:54:39.315Z,40.10
2018-06-15T12:57:13.596Z,40.50
2018-06-15T12:59:47.790Z,40.40
2018-06-15T13:02:22.004Z,41.80
2018-06-15T13:04:56.181Z,40.70
2018-06-15T13:10:04.775Z,41.70
2018-06-15T13:12:39.054Z,42.90
2018-06-15T13:15:13.323Z,42.20
2018-06-15T13:17:47.632Z,44.00
2018-06-15T13:20:21.719Z,41.90
2018-06-15T13:22:55.996Z,42.50
2018-06-15T13:25:30.207Z,42.70
2018-06-15T13:28:04.547Z,41.10
2018-06-15T13:30:38.787Z,42.30
2018-06-15T13:33:13.087Z,41.40
2018-06-15T13:35:47.495Z,43.00
2018-06-15T13:38:21.763Z,42.60
2018-06-15T13:43:30.326Z,43.20
2018-06-15T13:46:04.560Z,45.40
2018-06-15T13:48:38.824Z,43.20
2018-06-15T13:51:13.130Z,45.00
2018-06-15T13:53:47.439Z,45.60
2018-06-15T13:56:21.942Z,44.60
2018-06-15T13:58:56.331Z,44.10
2018-06-15T14:01:30.614Z,44.30
2018-06-15T14:04:04.926Z,45.30
2018-06-15T14:06:39.224Z,43.80
2018-06-15T14:09:13.521Z,42.40
2018-06-15T14:11:47.843Z,40.00
2018-06-15T14:14:22.018Z,41.20
2018-06-15T14:16:56.186Z,41.10
2018-06-15T14:19:30.474Z,40.00
2018-06-15T14:22:04.791Z,40.00
2018-06-15T14:24:39.003Z,40.60
2018-06-15T14:27:13.257Z,42.40
2018-06-15T14:29:47.685Z,41.30
2018-06-15T14:32:22.063Z,40.00
2018-06-15T14:34:56.244Z,38.30
2018-06-15T14:37:30.617Z,38.70
2018-06-15T14:40:05.054Z,39.70
2018-06-15T14:42:39.330Z,39.50
2018-06-15T14:45:13.687Z,39.40
2018-06-15T14:47:47.941Z,39.70
2018-06-15T14:50:22.148Z,40.60
2018-06-15T14:52:56.468Z,40.00
2018-06-15T14:55:30.780Z,41.30
2018-06-15T14:58:05.178Z,43.50
2018-06-15T15:00:39.590Z,44.00
2018-06-15T15:03:13.874Z,44.50
2018-06-15T15:05:48.230Z,42.30
2018-06-15T15:08:22.627Z,42.20
2018-06-15T15:10:56.847Z,42.90
2018-06-15T15:13:31.298Z,42.30
2018-06-15T15:16:05.480Z,39.60
2018-06-15T15:18:39.734Z,40.70
2018-06-15T15:21:14.014Z,39.60
2018-06-15T15:23:48.166Z,40.60
2018-06-15T15:26:22.374Z,41.90
2018-06-15T15:28:56.728Z,41.20
2018-06-15T15:31:31.059Z,39.30
2018-06-15T15:34:05.390Z,40.40
2018-06-15T15:36:39.671Z,40.40
2018-06-15T15:39:13.937Z,39.20
2018-06-15T15:41:48.254Z,40.90
2018-06-15T15:44:22.419Z,41.30
2018-06-15T15:46:56.697Z,42.30
2018-06-15T15:49:30.979Z,41.10
2018-06-15T15:52:05.399Z,42.80
2018-06-15T15:54:39.666Z,42.70
2018-06-15T15:57:13.832Z,43.30
2018-06-15T15:59:48.126Z,43.90
2018-06-15T16:02:22.455Z,44.80
2018-06-15T16:04:56.607Z,44.90
2018-06-15T16:07:30.924Z,44.60
2018-06-15T16:10:05.396Z,43.60
2018-06-15T16:12:39.782Z,42.90
2018-06-15T16:15:14.070Z,42.70
2018-06-15T16:17:48.352Z,41.80
2018-06-15T16:20:22.671Z,41.20
2018-06-15T16:22:56.983Z,40.80
2018-06-15T16:25:31.262Z,42.20
2018-06-15T16:28:05.524Z,41.50
2018-06-15T16:30:39.871Z,43.00
2018-06-15T16:33:14.380Z,42.70
2018-06-15T16:35:48.547Z,42.70
2018-06-15T16:38:22.838Z,43.10
2018-06-15T16:40:57.190Z,44.10
2018-06-15T16:43:31.526Z,45.00
2018-06-15T16:46:05.877Z,43.40
2018-06-15T16:48:40.410Z,44.10
2018-06-15T16:51:14.602Z,44.90
2018-06-15T16:53:48.866Z,44.10
2018-06-15T16:56:23.225Z,42.70
2018-06-15T16:58:57.473Z,44.10
2018-06-15T17:01:31.889Z,43.80
2018-06-15T17:04:06.324Z,44.20
2018-06-15T17:06:40.651Z,43.60
2018-06-15T17:09:14.866Z,44.00
2018-06-15T17:11:49.294Z,43.80
2018-06-15T17:14:23.432Z,45.30
2018-06-15T17:16:57.736Z,45.10
2018-06-15T17:19:32.038Z,45.10
2018-06-15T17:22:06.322Z,44.80
2018-06-15T17:24:40.498Z,45.50
2018-06-15T17:27:14.670Z,45.10
2018-06-15T17:29:49.142Z,46.10
2018-06-15T17:32:23.423Z,46.30
2018-06-15T17:34:57.879Z,47.20
2018-06-15T17:37:32.253Z,47.20
2018-06-15T17:40:06.447Z,47.70
2018-06-15T17:42:40.794Z,47.60
2018-06-15T17:45:15.051Z,47.90
2018-06-15T17:47:49.225Z,47.80
2018-06-15T17:50:23.378Z,47.70
2018-06-15T17:52:57.745Z,48.30
2018-06-15T17:55:31.867Z,48.50
2018-06-15T17:58:06.343Z,48.90
2018-06-15T18:00:40.900Z,48.70
2018-06-15T18:03:15.112Z,49.60
2018-06-15T18:05:49.511Z,49.20
2018-06-15T18:08:23.716Z,49.80
2018-06-15T18:10:57.854Z,51.00
2018-06-15T18:13:32.240Z,51.00
2018-06-15T18:16:06.499Z,50.80
2018-06-15T18:18:40.896Z,51.90
2018-06-15T18:21:15.489Z,52.00
2018-06-15T18:23:49.684Z,52.20
2018-06-15T18:26:24.038Z,52.60
2018-06-15T18:28:58.355Z,52.40
2018-06-15T18:31:32.616Z,52.70
2018-06-15T18:34:06.886Z,53.00
2018-06-15T18:36:41.146Z,53.50
2018-06-15T18:39:15.540Z,53.50
2018-06-15T18:41:49.734Z,54.10
2018-06-15T18:44:24.062Z,53.70
2018-06-15T18:46:58.319Z,54.00
2018-06-15T18:49:32.600Z,53.90
2018-06-15T18:52:06.927Z,53.80
2018-06-15T18:54:41.188Z,54.50
2018-06-15T18:57:15.387Z,54.60
2018-06-15T18:59:49.647Z,54.70
2018-06-15T19:04:58.350Z,55.70
2018-06-15T19:07:32.667Z,55.90
2018-06-15T19:10:07.019Z,56.60
2018-06-15T19:12:41.211Z,56.60
2018-06-15T19:15:15.430Z,57.10
2018-06-15T19:17:49.730Z,58.00
2018-06-15T19:20:24.044Z,58.30
2018-06-15T19:22:58.414Z,57.70
2018-06-15T19:25:32.792Z,57.90
2018-06-15T19:28:07.066Z,58.50
2018-06-15T19:30:41.346Z,57.90
2018-06-15T19:33:15.726Z,58.00
2018-06-15T19:35:50.138Z,58.30
2018-06-15T19:38:24.319Z,58.50
2018-06-15T19:40:58.619Z,59.10
2018-06-15T19:43:33.044Z,59.30
2018-06-15T19:46:07.280Z,60.00
2018-06-15T19:48:41.619Z,59.70
2018-06-15T19:51:15.808Z,59.90
2018-06-15T19:53:50.185Z,60.00
2018-06-15T19:56:24.474Z,60.20
2018-06-15T19:58:58.834Z,60.00
2018-06-15T20:01:33.223Z,61.10
2018-06-15T20:04:07.606Z,61.20
2018-06-15T20:06:41.899Z,61.40
2018-06-15T20:09:16.290Z,61.70
2018-06-15T20:11:50.682Z,61.90
2018-06-15T20:14:24.991Z,62.40
2018-06-15T20:16:59.298Z,61.60
2018-06-15T20:19:33.575Z,62.20
2018-06-15T20:22:07.978Z,63.10
2018-06-15T20:24:42.179Z,62.70
2018-06-15T20:27:16.595Z,62.50
2018-06-15T20:29:50.818Z,63.00
2018-06-15T20:32:24.955Z,63.70
2018-06-15T20:34:59.371Z,64.00
2018-06-15T20:37:33.698Z,64.10
2018-06-15T20:40:08.002Z,64.30
2018-06-15T20:42:42.157Z,64.50
2018-06-15T20:45:16.422Z,65.10
2018-06-15T20:47:50.678Z,65.40
2018-06-15T20:50:25.028Z,64.80
2018-06-15T20:52:59.222Z,65.30
2018-06-15T20:55:33.531Z,65.50
2018-06-15T20:58:07.860Z,65.90
2018-06-15T21:00:42.118Z,66.10
2018-06-15T21:03:16.414Z,65.80
2018-06-15T21:05:50.696Z,66.40
2018-06-15T21:08:25.031Z,66.70
2018-06-15T21:11:00.055Z,66.80
2018-06-15T21:13:34.281Z,66.90
2018-06-15T21:16:08.759Z,67.20
2018-06-15T21:18:43.063Z,67.10
2018-06-15T21:21:17.214Z,67.30
2018-06-15T21:23:51.595Z,67.70
2018-06-15T21:26:25.807Z,68.00
2018-06-15T21:28:59.947Z,67.80
2018-06-15T21:31:34.278Z,68.50
2018-06-15T21:34:08.606Z,68.40
2018-06-15T21:36:42.879Z,68.90
2018-06-15T21:39:17.142Z,68.90
2018-06-15T21:41:51.465Z,69.30
2018-06-15T21:46:59.842Z,69.80
2018-06-15T21:49:34.320Z,69.60
2018-06-15T21:52:08.768Z,69.60
2018-06-15T21:54:43.109Z,69.80
2018-06-15T21:57:17.443Z,69.90
2018-06-15T21:59:51.583Z,69.90
2018-06-15T22:02:26.002Z,70.30
2018-06-15T22:05:00.370Z,70.30
2018-06-15T22:07:34.695Z,70.00
2018-06-15T22:10:09.030Z,70.30
2018-06-15T22:12:43.377Z,70.40
2018-06-15T22:15:17.510Z,70.40
2018-06-15T22:17:51.782Z,70.80
2018-06-15T22:20:26.071Z,71.30
2018-06-15T22:23:00.478Z,71.00
2018-06-15T22:25:34.873Z,71.10
2018-06-15T22:28:09.180Z,71.30
2018-06-15T22:30:43.502Z,71.20
2018-06-15T22:33:17.866Z,71.30
2018-06-15T22:35:52.259Z,71.70
2018-06-15T22:38:26.527Z,71.80
2018-06-15T22:41:00.882Z,71.80
2018-06-15T22:43:35.202Z,71.90
2018-06-15T22:46:09.385Z,72.20
2018-06-15T22:48:43.647Z,72.70
2018-06-15T22:51:18.018Z,72.70
2018-06-15T22:53:52.192Z,72.30
2018-06-15T22:56:26.470Z,72.20
2018-06-15T22:59:00.823Z,72.30
2018-06-15T23:01:35.159Z,72.50
2018-06-15T23:04:09.334Z,72.50
2018-06-15T23:06:43.638Z,72.70
2018-06-15T23:09:17.907Z,72.70
2018-06-15T23:11:52.198Z,73.00
2018-06-15T23:14:26.466Z,73.30
2018-06-15T23:17:00.773Z,73.20
2018-06-15T23:19:34.927Z,73.40
2018-06-15T23:22:09.203Z,73.00
2018-06-15T23:24:43.418Z,73.20
2018-06-15T23:27:17.660Z,73.70
2018-06-15T23:29:51.912Z,73.30
2018-06-15T23:32:26.479Z,73.20
2018-06-15T23:35:00.719Z,73.20
2018-06-15T23:37:34.907Z,73.20
2018-06-15T23:40:09.166Z,73.10
2018-06-15T23:42:43.545Z,73.00
2018-06-15T23:45:17.818Z,73.50
2018-06-15T23:47:52.008Z,73.20
2018-06-15T23:50:26.337Z,73.60
2018-06-15T23:53:00.671Z,73.40
2018-06-15T23:55:34.911Z,74.00
2018-06-15T23:58:09.149Z,73.80
